Capitol Logistics 307


KSEA
Seattle-Tacoma International Airport
Seattle, Washington, US
KPDX
Portland International Airport
Portland, Oregon, US

Activity Log

Date Flight Route Aircraft Duration
02/23/2020 CPX307 SEA HELNS6 B763 0h 42m
01/06/2020 CPX307 SEA7 SEA HELNS6 B763 0h 45m
07/21/2019 CPX307 SEA HELNS6 B763 0h 35m
06/19/2019 CPX307 SEA HELNS6 B763 0h 42m
03/07/2019 CPX307 SEA HELNS6 B763 0h 47m
02/27/2019 CPX307 SEA HELNS6 B763 0h 53m
01/31/2019 CPX307 SEA BUWZO KRATR2 B763 0h 37m
01/30/2019 CPX307 SEA HELNS6 B763 0h 37m

Route Details

Aircraft Information
Primary: Boeing 767-300BDSF
Backup: Not Available
Route Data
Distance: 112nm
Sched. Duration: 1h 00m
Avg. Duration: 0h 42m (-58m)
Times Flown: 8
Recm'd Route: SEA HELNS6
Planned Altitude: 23,000ft
Origin Wx: KSEA 310540Z 20007KT 7SM -RA SCT009 BKN015 OVC020 06/04 A2992 RMK AO2 RAB04 P0002 T00560039
Dest. Wx: KPDX 310453Z 18004KT 10SM -RA FEW017 BKN040 OVC055 07/04 A2999 RMK AO2 RAB11 SLP153 P0001 T00720044
Notes:

Financial History
Total Freight: 806,598lbs
Average Load: 100,825lbs/flt
Fuel Used: 60,568lbs
Avg. Fuel Used: 7,571lbs/flt
Fuel Expense: $67,836
Avg. Fuel Expense: $8,480
Avg. Fuel Cost: $1.12/lbs
Total Gross Income: $1,021,239
Pilot Pay: $1,692
Total Expenses: $110,710
Total Revenue: $841,279
Average Revenue: $127,654.90